Flight Number: AVA1423 Duration: 2:00
Departure: London City Airport (EGLC) at 11:45 Distance: 481.415 Nm
Arrival: Lugano (LSZA) at 13:45 Equipment: ATR72

Weather Information
London City Airport, United Kingdom (EGLC) 51-30N 000-30W Jun 19, 2024 - 09:20 AM EDT / 2024.06.19 1320 UTC
Wind: from the NNE (030 degrees) at 12 MPH (10 KT):0
Visibility: greater than 7 mile(s):0
Sky conditions: mostly cloudy Temperature: 66 F (19 C) Dew Point: 46 F (8 C) Relative Humidity: 48% Pressure (altimeter): 30.18 in. Hg (1022 hPa)
ob: EGLC 191320Z AUTO 03010KT 9999 BKN045 19/08 Q1022 cycle: 13
Sunrise: 03:47 Sunset: 20:15 (UTC)

Lugano, Switzerland (LSZA) 46-00N 008-58E 276M Jun 19, 2024 - 09:20 AM EDT / 2024.06.19 1320 UTC
Wind: Variable at 2 MPH (2 KT):0
Visibility: greater than 7 mile(s):0
Sky conditions: mostly clear Temperature: 84 F (29 C) Dew Point: 66 F (19 C) Relative Humidity: 54% Pressure (altimeter): 30.03 in. Hg (1017 hPa)
ob: LSZA 191320Z VRB02KT 9999 FEW070 29/19 Q1017 cycle: 13
Sunrise: 03:37 Sunset: 19:14 (UTC)

TAF: 404 Not Found

Not Found

The requested URL /data/forecasts/taf/stations/LSZA.TXT was not found on this server.



This route has never been flown.

Route map